Time;durP1;ratioP1;P1;durP2;ratioP2;P2;SDS_P1;SDS_P2;PMS_P1;PMS_P2;Temp;Humidity;BMP_temperature;BMP_pressure;BME280_temperature;BME280_humidity;BME280_pressure;Samples;Min_cycle;Max_cycle;Signal;HPM_P1;HPM_P2
2021/01/16 00:00:50;;;;;;;16.30;13.00;;;3.60;84.60;;;;;;5074367;28;20447;-74
2021/01/16 00:03:17;;;;;;;16.60;10.73;;;3.60;84.00;;;;;;5073999;28;20937;-74
2021/01/16 00:05:44;;;;;;;16.70;11.90;;;3.60;83.70;;;;;;5074202;28;20476;-74
2021/01/16 00:08:12;;;;;;;20.50;12.47;;;3.50;83.70;;;;;;5074240;28;20447;-74
2021/01/16 00:10:39;;;;;;;17.30;12.33;;;3.50;83.80;;;;;;5074170;28;20448;-74
2021/01/16 00:13:10;;;;;;;19.43;12.77;;;3.50;83.70;;;;;;5074137;28;20509;-74
2021/01/16 00:15:36;;;;;;;18.43;13.80;;;3.50;83.70;;;;;;5074168;28;20432;-74
2021/01/16 00:18:04;;;;;;;16.37;13.10;;;3.40;83.80;;;;;;5074039;28;20444;-74
2021/01/16 00:20:32;;;;;;;18.43;12.53;;;3.40;84.10;;;;;;5074055;28;20445;-74
2021/01/16 00:22:58;;;;;;;16.37;12.10;;;3.40;84.60;;;;;;5073947;28;20460;-74
2021/01/16 00:25:25;;;;;;;19.87;13.80;;;3.50;85.30;;;;;;5073559;28;20997;-74
2021/01/16 00:27:51;;;;;;;20.70;13.47;;;3.50;85.70;;;;;;5073865;28;20444;-74
2021/01/16 00:30:21;;;;;;;17.23;13.67;;;3.50;86.10;;;;;;5073594;28;20424;-74
2021/01/16 00:32:48;;;;;;;19.67;14.03;;;3.50;86.30;;;;;;5073746;28;20470;-74
2021/01/16 00:35:16;;;;;;;18.70;14.27;;;3.50;86.50;;;;;;5073483;28;20501;-74
2021/01/16 00:37:44;;;;;;;21.00;15.50;;;3.50;86.20;;;;;;5073749;28;20468;-74
2021/01/16 00:40:12;;;;;;;20.40;14.10;;;3.50;85.90;;;;;;5073687;28;20535;-75
2021/01/16 00:42:39;;;;;;;23.17;14.23;;;3.50;85.90;;;;;;5073330;28;20468;-74
2021/01/16 00:45:07;;;;;;;20.70;14.97;;;3.50;86.30;;;;;;5073602;28;20444;-74
2021/01/16 00:47:35;;;;;;;20.73;14.60;;;3.50;86.50;;;;;;5073706;28;20448;-74
2021/01/16 00:50:02;;;;;;;20.97;15.40;;;3.50;86.30;;;;;;5073188;28;20447;-74
2021/01/16 00:52:28;;;;;;;21.63;15.30;;;3.40;86.00;;;;;;5073523;28;20472;-74
2021/01/16 00:54:54;;;;;;;22.30;15.77;;;3.50;86.10;;;;;;5073600;28;20450;-74
2021/01/16 00:57:20;;;;;;;22.77;13.90;;;3.50;86.30;;;;;;5073254;28;20447;-74
2021/01/16 00:59:47;;;;;;;19.20;14.53;;;3.40;86.30;;;;;;5073531;28;20796;-74
2021/01/16 01:02:13;;;;;;;19.43;15.13;;;3.50;86.40;;;;;;5073406;28;20464;-74
2021/01/16 01:04:40;;;;;;;23.10;18.20;;;3.40;86.00;;;;;;5073472;28;20455;-74
2021/01/16 01:07:10;;;;;;;25.87;16.00;;;3.40;85.90;;;;;;5073622;28;20483;-74
2021/01/16 01:09:36;;;;;;;21.53;15.33;;;3.40;86.00;;;;;;5073323;28;20514;-74
2021/01/16 01:12:03;;;;;;;21.77;15.70;;;3.40;86.20;;;;;;5073195;28;20878;-74
2021/01/16 01:14:29;;;;;;;21.63;15.80;;;3.50;86.70;;;;;;5073368;28;20448;-74
2021/01/16 01:16:55;;;;;;;22.23;15.83;;;3.50;86.60;;;;;;5073326;28;20463;-74
2021/01/16 01:19:21;;;;;;;21.83;16.57;;;3.50;86.70;;;;;;5072991;28;20887;-74
2021/01/16 01:21:49;;;;;;;21.37;15.30;;;3.50;86.90;;;;;;5073181;28;20467;-74
2021/01/16 01:24:15;;;;;;;22.30;16.80;;;3.60;87.10;;;;;;5073526;28;20437;-74
2021/01/16 01:26:41;;;;;;;22.00;15.50;;;3.60;87.70;;;;;;5073213;28;20551;-74
2021/01/16 01:29:07;;;;;;;23.87;15.03;;;3.60;86.70;;;;;;5073247;28;20815;-74
2021/01/16 01:31:36;;;;;;;20.47;15.03;;;3.60;86.50;;;;;;5073079;28;20460;-74
2021/01/16 01:34:02;;;;;;;22.20;14.87;;;3.60;86.30;;;;;;5073715;28;20451;-74
2021/01/16 01:36:28;;;;;;;23.03;15.50;;;3.60;86.40;;;;;;5073162;28;20451;-74
2021/01/16 01:38:55;;;;;;;22.03;16.33;;;3.60;86.30;;;;;;5073114;28;20447;-74
2021/01/16 01:41:21;;;;;;;24.20;16.60;;;3.60;86.30;;;;;;5072712;28;20882;-74
2021/01/16 01:43:48;;;;;;;22.73;16.83;;;3.60;86.30;;;;;;5072757;28;20443;-74
2021/01/16 01:46:15;;;;;;;27.00;16.60;;;3.60;86.40;;;;;;5072962;28;20475;-74
2021/01/16 01:48:41;;;;;;;21.00;15.47;;;3.60;86.30;;;;;;5072939;28;20506;-74
2021/01/16 01:51:08;;;;;;;26.57;17.73;;;3.60;86.00;;;;;;5072903;28;20495;-74
2021/01/16 01:53:36;;;;;;;23.10;15.67;;;3.70;86.10;;;;;;5072935;28;20455;-74
2021/01/16 01:56:04;;;;;;;20.77;16.00;;;3.60;86.20;;;;;;5072936;28;20443;-74
2021/01/16 01:58:32;;;;;;;20.70;15.17;;;3.70;86.10;;;;;;5072642;28;20451;-74
2021/01/16 02:00:58;;;;;;;23.97;15.47;;;3.60;85.70;;;;;;5072795;28;20448;-74
2021/01/16 02:03:25;;;;;;;19.20;14.47;;;3.60;85.40;;;;;;5076378;28;20448;-74
2021/01/16 02:05:55;;;;;;;22.40;14.90;;;3.60;85.20;;;;;;5076509;28;20480;-74
2021/01/16 02:08:22;;;;;;;26.97;16.80;;;3.60;85.40;;;;;;5076559;28;20451;-74
2021/01/16 02:10:48;;;;;;;18.47;14.20;;;3.60;86.00;;;;;;5076233;28;20455;-74
2021/01/16 02:13:15;;;;;;;21.73;15.50;;;3.60;86.40;;;;;;5076480;28;20497;-74
2021/01/16 02:15:45;;;;;;;24.10;16.60;;;3.60;86.50;;;;;;5076397;28;20447;-74
2021/01/16 02:18:23;;;;;;;22.60;16.00;;;3.60;86.60;;;;;;5076359;28;20440;-74
2021/01/16 02:20:53;;;;;;;25.33;17.53;;;3.60;86.50;;;;;;5076342;28;20432;-74
2021/01/16 02:23:32;;;;;;;24.37;17.33;;;3.60;86.70;;;;;;5076307;28;20444;-74
2021/01/16 02:26:30;;;;;;;24.80;17.37;;;3.60;86.80;;;;;;5076139;28;20461;-74
2021/01/16 02:29:01;;;;;;;26.70;16.00;;;3.60;87.10;;;;;;5075891;28;20802;-74
2021/01/16 02:31:30;;;;;;;26.60;17.07;;;3.60;86.80;;;;;;5076375;28;20873;-74
2021/01/16 02:33:59;;;;;;;24.67;16.50;;;3.60;86.30;;;;;;5076075;28;20444;-74
2021/01/16 02:36:39;;;;;;;21.90;15.23;;;3.60;86.00;;;;;;5076087;28;20451;-74
2021/01/16 02:39:13;;;;;;;25.57;15.90;;;3.60;86.00;;;;;;5076056;28;20432;-74
2021/01/16 02:41:53;;;;;;;23.40;16.20;;;3.50;86.00;;;;;;5075948;28;20460;-74
2021/01/16 02:44:28;;;;;;;26.03;16.90;;;3.50;86.30;;;;;;5076003;28;20431;-74
2021/01/16 02:46:59;;;;;;;24.57;16.23;;;3.50;86.40;;;;;;5075857;28;20467;-74
2021/01/16 02:49:41;;;;;;;29.60;17.33;;;3.50;86.60;;;;;;5075871;28;20436;-74
2021/01/16 02:52:08;;;;;;;29.30;17.90;;;3.50;86.90;;;;;;5075420;28;20462;-74
2021/01/16 02:54:37;;;;;;;32.07;16.70;;;3.50;87.00;;;;;;5075699;28;20996;-74
2021/01/16 02:57:05;;;;;;;26.03;16.70;;;3.50;87.20;;;;;;5075714;28;20521;-74
2021/01/16 02:59:35;;;;;;;25.57;17.70;;;3.60;87.40;;;;;;5075665;28;20443;-74
2021/01/16 03:02:04;;;;;;;24.80;17.10;;;3.60;87.80;;;;;;5075649;28;20495;-74
2021/01/16 03:04:31;;;;;;;28.50;17.37;;;3.60;87.70;;;;;;5075555;28;20444;-74
2021/01/16 03:06:58;;;;;;;23.77;16.40;;;3.60;87.60;;;;;;5075425;28;20482;-74
2021/01/16 03:09:25;;;;;;;29.10;17.57;;;3.60;87.20;;;;;;5075676;28;20440;-74
2021/01/16 03:11:52;;;;;;;31.60;16.07;;;3.60;87.20;;;;;;5075038;28;20546;-74
2021/01/16 03:14:20;;;;;;;25.87;18.27;;;3.60;87.10;;;;;;5075019;28;20444;-74
2021/01/16 03:17:04;;;;;;;25.30;17.30;;;3.50;87.10;;;;;;5076140;28;20814;-74
2021/01/16 03:19:32;;;;;;;23.23;16.83;;;3.50;87.20;;;;;;5075276;28;20972;-74
2021/01/16 03:21:58;;;;;;;25.73;16.60;;;3.50;87.30;;;;;;5075122;28;20472;-74
2021/01/16 03:24:25;;;;;;;28.40;16.00;;;3.60;87.30;;;;;;5074854;28;20440;-74
2021/01/16 03:26:51;;;;;;;32.10;17.20;;;3.50;87.20;;;;;;5075032;28;20484;-74
2021/01/16 03:29:17;;;;;;;26.70;16.40;;;3.60;87.40;;;;;;5075096;28;20448;-74
2021/01/16 03:31:43;;;;;;;28.33;18.30;;;3.50;87.20;;;;;;5074908;28;20866;-74
2021/01/16 03:34:10;;;;;;;29.23;18.30;;;3.50;87.10;;;;;;5075002;28;20428;-74
2021/01/16 03:36:36;;;;;;;31.63;18.20;;;3.50;87.00;;;;;;5074902;28;20444;-74
2021/01/16 03:39:03;;;;;;;28.90;17.60;;;3.50;87.40;;;;;;5074753;28;20817;-74
2021/01/16 03:41:29;;;;;;;31.23;17.13;;;3.60;87.80;;;;;;5074749;28;20478;-74
2021/01/16 03:43:55;;;;;;;26.93;16.03;;;3.60;87.90;;;;;;5074759;28;20449;-74
2021/01/16 03:46:22;;;;;;;28.97;16.50;;;3.60;87.70;;;;;;5074637;28;20480;-74
2021/01/16 03:48:48;;;;;;;28.60;18.07;;;3.60;87.50;;;;;;5074638;28;20454;-74
2021/01/16 03:51:15;;;;;;;32.20;16.10;;;3.60;87.60;;;;;;5074531;28;20464;-74
2021/01/16 03:53:41;;;;;;;30.20;17.17;;;3.60;87.70;;;;;;5074572;28;20440;-74
2021/01/16 03:56:09;;;;;;;35.70;18.00;;;3.60;87.60;;;;;;5074169;28;20938;-74
2021/01/16 03:58:35;;;;;;;35.23;16.50;;;3.60;87.50;;;;;;5074727;28;20535;-74
2021/01/16 04:01:01;;;;;;;31.60;18.37;;;3.60;87.50;;;;;;5074066;28;20990;-74
2021/01/16 04:03:27;;;;;;;29.80;16.70;;;3.60;87.40;;;;;;5074314;28;20501;-74
2021/01/16 04:05:53;;;;;;;35.67;16.40;;;3.60;87.30;;;;;;5073914;28;21019;-74
2021/01/16 04:08:21;;;;;;;32.67;17.17;;;3.50;87.50;;;;;;5074295;28;20444;-74
2021/01/16 04:10:47;;;;;;;34.93;17.30;;;3.60;87.60;;;;;;5073911;28;20503;-74
2021/01/16 04:13:13;;;;;;;35.73;17.50;;;3.60;87.60;;;;;;5074221;28;20526;-74
2021/01/16 04:15:40;;;;;;;27.13;16.80;;;3.50;87.70;;;;;;5074158;28;20451;-75
2021/01/16 04:18:06;;;;;;;31.10;16.60;;;3.50;87.80;;;;;;5074092;28;20494;-74
2021/01/16 04:20:32;;;;;;;27.80;17.43;;;3.60;88.10;;;;;;5074229;28;20478;-74
2021/01/16 04:22:58;;;;;;;36.37;16.90;;;3.60;88.10;;;;;;5073913;28;20468;-74
2021/01/16 04:25:25;;;;;;;37.33;19.27;;;3.60;88.20;;;;;;5073206;28;20467;-74
2021/01/16 04:27:51;;;;;;;25.50;15.87;;;3.60;88.20;;;;;;5073938;28;20441;-74
2021/01/16 04:30:18;;;;;;;31.53;16.83;;;3.60;88.30;;;;;;5073866;28;20799;-74
2021/01/16 04:32:44;;;;;;;33.10;17.50;;;3.60;88.10;;;;;;5073836;28;20461;-74
2021/01/16 04:35:12;;;;;;;30.73;17.37;;;3.50;88.00;;;;;;5073849;28;20456;-74
2021/01/16 04:37:38;;;;;;;24.20;15.90;;;3.60;88.20;;;;;;5073802;28;20448;-74
2021/01/16 04:40:05;;;;;;;27.60;18.17;;;3.50;88.20;;;;;;5073748;28;20448;-74
2021/01/16 04:42:33;;;;;;;29.90;18.33;;;3.60;88.40;;;;;;5074560;28;20468;-74
2021/01/16 04:45:01;;;;;;;23.23;17.03;;;3.50;88.30;;;;;;5073734;28;20448;-74
2021/01/16 04:47:29;;;;;;;26.23;17.90;;;3.60;88.50;;;;;;5073596;28;20887;-74
2021/01/16 04:49:59;;;;;;;24.67;17.00;;;3.60;88.60;;;;;;5073606;28;20452;-74
2021/01/16 04:52:28;;;;;;;24.87;17.27;;;3.50;88.20;;;;;;5073578;28;20499;-74
2021/01/16 04:54:56;;;;;;;25.63;17.80;;;3.50;88.10;;;;;;5073583;28;20474;-74
2021/01/16 04:57:23;;;;;;;28.93;18.23;;;3.50;88.10;;;;;;5073762;28;20447;-74
2021/01/16 04:59:51;;;;;;;25.87;18.10;;;3.50;88.00;;;;;;5073480;28;20447;-74
2021/01/16 05:02:21;;;;;;;30.23;18.93;;;3.50;87.90;;;;;;5073392;28;20474;-74
2021/01/16 05:04:50;;;;;;;28.33;18.73;;;3.50;87.90;;;;;;5073203;28;20478;-74
2021/01/16 05:07:19;;;;;;;26.00;16.03;;;3.60;88.00;;;;;;5073425;28;20479;-74
2021/01/16 05:09:46;;;;;;;23.80;17.57;;;3.60;87.90;;;;;;5073443;28;20487;-74
2021/01/16 05:12:34;;;;;;;27.77;17.80;;;3.50;87.60;;;;;;5072958;28;20537;-74
2021/01/16 05:15:06;;;;;;;25.20;17.80;;;3.50;87.30;;;;;;5073525;28;20520;-74
2021/01/16 05:17:36;;;;;;;25.87;17.40;;;3.40;87.00;;;;;;5073440;28;20425;-74
2021/01/16 05:20:03;;;;;;;25.60;17.27;;;3.40;86.70;;;;;;5073333;28;20524;-74
2021/01/16 05:22:29;;;;;;;25.40;17.00;;;3.40;87.00;;;;;;5073251;28;20478;-74
2021/01/16 05:25:01;;;;;;;28.13;18.33;;;3.40;87.10;;;;;;5073272;28;20452;-74
2021/01/16 05:27:33;;;;;;;23.90;16.47;;;3.40;87.20;;;;;;5073236;28;20568;-74
2021/01/16 05:30:01;;;;;;;25.87;16.80;;;3.40;87.10;;;;;;5072987;28;20874;-74
2021/01/16 05:32:31;;;;;;;21.50;15.93;;;3.40;86.80;;;;;;5072831;28;20974;-74
2021/01/16 05:35:12;;;;;;;22.50;16.23;;;3.40;86.80;;;;;;5072929;28;20480;-74
2021/01/16 05:37:39;;;;;;;27.83;18.97;;;3.40;86.90;;;;;;5077272;28;20425;-74
2021/01/16 05:40:08;;;;;;;23.33;16.97;;;3.40;86.80;;;;;;5077169;28;20440;-74
2021/01/16 05:42:34;;;;;;;24.37;17.03;;;3.40;86.90;;;;;;5076573;28;20475;-74
2021/01/16 05:45:01;;;;;;;22.93;16.23;;;3.40;86.90;;;;;;5076770;28;20938;-74
2021/01/16 05:47:29;;;;;;;34.23;17.43;;;3.40;86.70;;;;;;5076902;28;20480;-74
2021/01/16 05:49:56;;;;;;;25.60;17.33;;;3.40;86.50;;;;;;5077016;28;20446;-74
2021/01/16 05:52:22;;;;;;;26.60;17.47;;;3.40;86.30;;;;;;5077076;28;20468;-74
2021/01/16 05:54:51;;;;;;;24.80;17.27;;;3.50;86.50;;;;;;5076567;28;20942;-74
2021/01/16 05:57:19;;;;;;;32.47;17.90;;;3.40;86.10;;;;;;5076797;28;20454;-74
2021/01/16 05:59:46;;;;;;;24.33;17.20;;;3.40;86.40;;;;;;5076781;28;20440;-74
2021/01/16 06:02:14;;;;;;;24.47;18.57;;;3.40;86.50;;;;;;5076621;28;20463;-74
2021/01/16 06:04:46;;;;;;;33.33;18.10;;;3.40;86.50;;;;;;5076680;28;20458;-74
2021/01/16 06:07:13;;;;;;;22.70;16.33;;;3.40;86.80;;;;;;5076264;28;20993;-74
2021/01/16 06:09:41;;;;;;;24.70;17.73;;;3.40;86.70;;;;;;5076549;28;20447;-74
2021/01/16 06:12:12;;;;;;;23.60;16.70;;;3.40;86.80;;;;;;5076333;28;20464;-74
2021/01/16 06:14:42;;;;;;;26.40;16.53;;;3.40;86.80;;;;;;5076496;28;20428;-74
2021/01/16 06:17:11;;;;;;;20.20;15.50;;;3.40;86.80;;;;;;5076201;28;20969;-74
2021/01/16 06:19:42;;;;;;;21.10;15.67;;;3.40;86.80;;;;;;5076392;28;20448;-75
2021/01/16 06:22:09;;;;;;;23.63;16.80;;;3.40;86.90;;;;;;5076358;28;20468;-74
2021/01/16 06:24:37;;;;;;;26.10;18.37;;;3.40;86.80;;;;;;5076236;28;20952;-74
2021/01/16 06:27:05;;;;;;;27.50;17.17;;;3.40;86.80;;;;;;5076169;28;20475;-74
2021/01/16 06:29:33;;;;;;;28.07;17.17;;;3.40;86.80;;;;;;5076262;28;20455;-74
2021/01/16 06:32:05;;;;;;;25.80;17.23;;;3.30;86.70;;;;;;5076103;28;20799;-74
2021/01/16 06:34:32;;;;;;;29.97;16.00;;;3.30;86.80;;;;;;5076145;28;20451;-74
2021/01/16 06:37:16;;;;;;;27.93;17.30;;;3.30;86.80;;;;;;5076073;28;20466;-74
2021/01/16 06:39:47;;;;;;;25.40;16.33;;;3.30;87.00;;;;;;5076062;28;20431;-74
2021/01/16 06:42:22;;;;;;;26.70;17.00;;;3.30;87.00;;;;;;5075668;28;21023;-74
2021/01/16 06:45:00;;;;;;;22.67;16.37;;;3.30;86.80;;;;;;5076002;28;20427;-74
2021/01/16 06:47:27;;;;;;;28.93;16.40;;;3.30;87.00;;;;;;5075078;28;20468;-74
2021/01/16 06:49:58;;;;;;;31.90;17.70;;;3.30;87.10;;;;;;5076113;28;20444;-74
2021/01/16 06:52:32;;;;;;;25.13;16.40;;;3.30;87.20;;;;;;5076754;28;20475;-74
2021/01/16 06:54:59;;;;;;;27.73;17.47;;;3.30;87.10;;;;;;5076345;28;20470;-75
2021/01/16 06:57:26;;;;;;;25.43;16.73;;;3.30;86.80;;;;;;5075694;28;20470;-75
2021/01/16 06:59:58;;;;;;;23.83;16.13;;;3.30;86.40;;;;;;5075738;28;20439;-75
2021/01/16 07:02:27;;;;;;;24.03;16.77;;;3.30;86.60;;;;;;5075569;28;20476;-75
2021/01/16 07:04:55;;;;;;;29.57;18.13;;;3.40;86.60;;;;;;5075614;28;20447;-75
2021/01/16 07:07:31;;;;;;;25.50;17.87;;;3.30;86.60;;;;;;5075536;28;20468;-75
2021/01/16 07:10:00;;;;;;;34.07;18.30;;;3.30;86.70;;;;;;5075229;28;20465;-74
2021/01/16 07:12:26;;;;;;;23.80;16.20;;;3.30;86.70;;;;;;5075388;28;20486;-75
2021/01/16 07:14:52;;;;;;;23.60;16.37;;;3.30;86.60;;;;;;5075378;28;20444;-75
2021/01/16 07:17:22;;;;;;;24.33;17.37;;;3.30;86.50;;;;;;5075079;28;20939;-74
2021/01/16 07:19:48;;;;;;;28.27;18.47;;;3.30;86.70;;;;;;5075317;28;20456;-74
2021/01/16 07:22:14;;;;;;;23.90;18.13;;;3.30;86.60;;;;;;5075475;28;20465;-74
2021/01/16 07:24:42;;;;;;;27.70;17.03;;;3.40;86.30;;;;;;5075574;28;20452;-74
2021/01/16 07:27:12;;;;;;;24.63;16.83;;;3.40;86.40;;;;;;5075297;28;20479;-74
2021/01/16 07:29:39;;;;;;;27.10;17.07;;;3.30;86.20;;;;;;5075197;28;20439;-74
2021/01/16 07:32:14;;;;;;;24.63;17.17;;;3.30;85.80;;;;;;5075281;28;20486;-74
2021/01/16 07:34:43;;;;;;;20.20;14.83;;;3.40;85.00;;;;;;5074736;28;20492;-74
2021/01/16 07:37:10;;;;;;;24.30;16.30;;;3.40;84.50;;;;;;5074952;28;20467;-74
2021/01/16 07:39:39;;;;;;;24.67;17.13;;;3.40;84.80;;;;;;5074893;28;20471;-74
2021/01/16 07:42:11;;;;;;;24.73;16.13;;;3.40;85.10;;;;;;5075048;28;20496;-74
2021/01/16 07:44:42;;;;;;;21.50;15.20;;;3.40;85.00;;;;;;5075053;28;20433;-74
2021/01/16 07:47:18;;;;;;;24.13;17.67;;;3.50;85.30;;;;;;5074788;28;20465;-74
2021/01/16 07:49:54;;;;;;;25.30;18.33;;;3.50;85.60;;;;;;5074675;28;20953;-74
2021/01/16 07:52:25;;;;;;;26.17;18.07;;;3.50;86.10;;;;;;5074592;28;20455;-74
2021/01/16 07:55:06;;;;;;;25.53;18.17;;;3.60;86.20;;;;;;5074581;28;20444;-74
2021/01/16 07:57:34;;;;;;;25.40;18.17;;;3.60;86.40;;;;;;5074542;28;20566;-74
2021/01/16 08:00:07;;;;;;;27.60;19.73;;;3.60;86.50;;;;;;5073502;28;20440;-74
2021/01/16 08:02:40;;;;;;;23.07;17.27;;;3.60;86.60;;;;;;5074410;28;20507;-74
2021/01/16 08:05:24;;;;;;;29.20;18.53;;;3.70;86.70;;;;;;5074448;28;20464;-74
2021/01/16 08:08:25;;;;;;;25.47;17.30;;;3.70;86.70;;;;;;5074383;28;20516;-74
2021/01/16 08:10:54;;;;;;;27.30;16.90;;;3.70;86.70;;;;;;5073817;28;20456;-74
2021/01/16 08:13:23;;;;;;;30.00;17.80;;;3.70;86.10;;;;;;5074225;28;20448;-74
2021/01/16 08:15:50;;;;;;;27.90;17.90;;;3.70;86.00;;;;;;5074152;28;20501;-74
2021/01/16 08:18:19;;;;;;;21.00;15.87;;;3.70;86.00;;;;;;5074134;28;20443;-74
2021/01/16 08:20:48;;;;;;;24.50;17.33;;;3.80;86.30;;;;;;5073976;28;20566;-74
2021/01/16 08:23:23;;;;;;;28.93;18.20;;;3.70;86.20;;;;;;5074021;28;20811;-74
2021/01/16 08:25:50;;;;;;;22.90;16.63;;;3.80;86.30;;;;;;5073620;28;20796;-74
2021/01/16 08:28:26;;;;;;;22.33;16.73;;;3.80;86.00;;;;;;5073949;28;20441;-74
2021/01/16 08:30:53;;;;;;;28.47;17.27;;;3.80;85.70;;;;;;5073821;28;20789;-74
2021/01/16 08:33:33;;;;;;;22.70;17.53;;;3.80;85.50;;;;;;5073849;28;20451;-74
2021/01/16 08:36:17;;;;;;;28.70;17.47;;;3.80;85.10;;;;;;5073895;28;20424;-74
2021/01/16 08:38:44;;;;;;;27.10;17.90;;;3.80;84.80;;;;;;5073849;28;20465;-74
2021/01/16 08:41:10;;;;;;;26.30;17.17;;;3.80;84.60;;;;;;5073707;28;20468;-74
2021/01/16 08:43:40;;;;;;;26.10;16.80;;;3.80;84.20;;;;;;5073730;28;20816;-74
2021/01/16 08:46:11;;;;;;;26.77;18.80;;;3.80;83.80;;;;;;5073610;28;20516;-74
2021/01/16 08:48:40;;;;;;;22.50;16.80;;;3.80;83.50;;;;;;5073748;28;20478;-74
2021/01/16 08:51:33;;;;;;;23.60;15.90;;;3.90;83.40;;;;;;5073589;28;20472;-74
2021/01/16 08:54:10;;;;;;;25.13;16.00;;;3.90;83.10;;;;;;5073349;28;20425;-74
2021/01/16 08:56:36;;;;;;;23.67;17.27;;;3.90;83.10;;;;;;5073628;28;20776;-74
2021/01/16 08:59:28;;;;;;;30.90;17.67;;;3.90;83.20;;;;;;5073188;28;21019;-74
2021/01/16 09:02:05;;;;;;;26.80;16.37;;;3.90;83.20;;;;;;5053691;28;20992;-74
2021/01/16 09:04:33;;;;;;;25.13;17.87;;;3.90;83.00;;;;;;5073199;28;20925;-75
2021/01/16 09:07:13;;;;;;;27.33;18.17;;;3.90;83.40;;;;;;5073399;28;20480;-74
2021/01/16 09:09:40;;;;;;;32.20;19.13;;;3.90;83.60;;;;;;5073453;28;20493;-74
2021/01/16 09:12:12;;;;;;;25.60;16.90;;;3.90;83.60;;;;;;5072916;28;20484;-74
2021/01/16 09:14:40;;;;;;;31.00;18.37;;;3.90;83.30;;;;;;5073399;28;20804;-74
2021/01/16 09:17:20;;;;;;;40.07;18.53;;;3.90;83.30;;;;;;5073414;28;20420;-74
2021/01/16 09:19:53;;;;;;;27.23;18.37;;;3.90;83.60;;;;;;5073070;28;20911;-75
2021/01/16 09:22:20;;;;;;;29.07;17.20;;;4.00;83.30;;;;;;5073271;28;20471;-75
2021/01/16 09:24:46;;;;;;;28.43;17.50;;;4.00;83.00;;;;;;5073330;28;20432;-75
2021/01/16 09:27:24;;;;;;;28.13;18.57;;;4.00;83.20;;;;;;5073191;28;20461;-74
2021/01/16 09:29:51;;;;;;;28.93;17.60;;;4.00;83.20;;;;;;5073478;28;20527;-74
2021/01/16 09:32:35;;;;;;;26.67;17.73;;;4.00;83.30;;;;;;5073157;28;20476;-76
2021/01/16 09:35:03;;;;;;;28.83;17.53;;;4.00;83.50;;;;;;5073431;28;20433;-75
2021/01/16 09:37:35;;;;;;;34.57;18.60;;;4.10;83.60;;;;;;5073123;28;20509;-75
2021/01/16 09:40:05;;;;;;;24.37;16.60;;;4.10;83.60;;;;;;5073178;28;20524;-75
2021/01/16 09:42:31;;;;;;;26.90;17.50;;;4.10;82.90;;;;;;5073587;28;20475;-75
2021/01/16 09:44:58;;;;;;;26.33;16.50;;;4.10;82.70;;;;;;5073135;28;20432;-75
2021/01/16 09:47:45;;;;;;;29.50;16.20;;;4.20;82.40;;;;;;5072653;28;20864;-75
2021/01/16 09:50:13;;;;;;;32.33;18.50;;;4.20;82.20;;;;;;5073071;28;20433;-75
2021/01/16 09:52:50;;;;;;;30.10;20.07;;;4.20;82.10;;;;;;5072931;28;20469;-75
2021/01/16 09:55:18;;;;;;;29.13;19.43;;;4.20;82.30;;;;;;5072724;28;20917;-75
2021/01/16 09:57:45;;;;;;;26.70;17.87;;;4.20;82.30;;;;;;5072918;28;20441;-75
2021/01/16 10:00:13;;;;;;;23.90;16.93;;;4.20;82.20;;;;;;5073015;28;20459;-76
2021/01/16 10:02:41;;;;;;;28.03;17.27;;;4.20;82.00;;;;;;5072910;28;20457;-75
2021/01/16 10:05:09;;;;;;;26.60;16.37;;;4.20;81.90;;;;;;5073063;28;20440;-75
2021/01/16 10:07:40;;;;;;;23.40;16.37;;;4.30;81.60;;;;;;5073234;28;20497;-76
2021/01/16 10:10:14;;;;;;;23.90;16.20;;;4.30;81.00;;;;;;5072632;28;20456;-75
2021/01/16 10:12:42;;;;;;;23.90;15.20;;;4.20;80.80;;;;;;5072791;28;20819;-76
2021/01/16 10:15:12;;;;;;;23.57;15.40;;;4.20;81.10;;;;;;5072945;28;20504;-76
2021/01/16 10:17:44;;;;;;;23.00;15.30;;;4.20;81.00;;;;;;5072837;28;20431;-76
2021/01/16 10:20:13;;;;;;;22.93;15.90;;;4.20;81.10;;;;;;5072436;28;20946;-76
2021/01/16 10:22:43;;;;;;;26.47;16.83;;;4.20;81.00;;;;;;5073531;28;20468;-76
2021/01/16 10:25:11;;;;;;;26.60;17.93;;;4.20;81.00;;;;;;5076075;28;20914;-76
2021/01/16 10:27:45;;;;;;;21.80;15.10;;;4.30;81.20;;;;;;5075934;28;21023;-77
2021/01/16 10:30:35;;;;;;;23.30;15.83;;;4.30;80.90;;;;;;5076206;28;20437;-76
2021/01/16 10:33:22;;;;;;;22.27;15.70;;;4.30;80.90;;;;;;5074438;28;20469;-76
2021/01/16 10:35:51;;;;;;;20.53;14.00;;;4.30;80.80;;;;;;5075461;28;20452;-75
2021/01/16 10:38:43;;;;;;;22.17;14.20;;;4.30;80.30;;;;;;5076046;28;20526;-75
2021/01/16 10:41:11;;;;;;;30.07;17.20;;;4.30;80.20;;;;;;5075953;28;20468;-75
2021/01/16 10:43:37;;;;;;;21.70;14.10;;;4.20;79.00;;;;;;5076027;28;20421;-75
2021/01/16 10:46:12;;;;;;;27.60;13.60;;;4.30;79.30;;;;;;5075590;28;20445;-75
2021/01/16 10:48:39;;;;;;;25.10;16.33;;;4.30;78.70;;;;;;5076024;28;20436;-75
2021/01/16 10:51:07;;;;;;;23.80;14.03;;;4.20;78.10;;;;;;5075836;28;20448;-75
2021/01/16 10:53:38;;;;;;;24.87;14.10;;;4.30;78.30;;;;;;5075831;28;20454;-75
2021/01/16 10:56:12;;;;;;;24.17;14.60;;;4.30;77.50;;;;;;5075830;28;20444;-75
2021/01/16 10:58:39;;;;;;;23.33;14.53;;;4.40;77.80;;;;;;5076062;28;20429;-78
2021/01/16 11:01:08;;;;;;;25.23;15.07;;;4.40;77.70;;;;;;5075370;28;21245;-75
2021/01/16 11:03:35;;;;;;;22.83;15.13;;;4.40;77.90;;;;;;5075325;28;20453;-75
2021/01/16 11:06:04;;;;;;;24.77;16.30;;;4.50;78.20;;;;;;5075602;28;20858;-75
2021/01/16 11:08:32;;;;;;;25.37;14.50;;;4.50;77.60;;;;;;5075628;28;20448;-75
2021/01/16 11:11:00;;;;;;;23.10;13.40;;;4.50;77.50;;;;;;5075320;28;20457;-75
2021/01/16 11:13:28;;;;;;;20.40;14.03;;;4.60;77.30;;;;;;5075465;28;20451;-74
2021/01/16 11:15:56;;;;;;;28.27;14.40;;;4.60;77.00;;;;;;5075123;28;20930;-75
2021/01/16 11:18:30;;;;;;;20.67;13.47;;;4.60;76.90;;;;;;5075390;28;20833;-75
2021/01/16 11:21:06;;;;;;;24.93;13.70;;;4.60;77.10;;;;;;5075277;28;20436;-75
2021/01/16 11:23:51;;;;;;;20.67;13.27;;;4.60;77.50;;;;;;5075300;28;20479;-74
2021/01/16 11:26:17;;;;;;;24.00;13.37;;;4.60;77.00;;;;;;5074904;28;20929;-75
2021/01/16 11:28:48;;;;;;;20.20;11.90;;;4.60;76.90;;;;;;5075161;28;20503;-75
2021/01/16 11:31:26;;;;;;;28.80;13.73;;;4.60;76.50;;;;;;5075046;28;20475;-75
2021/01/16 11:34:18;;;;;;;20.63;13.20;;;4.60;76.50;;;;;;5074879;28;20440;-75
2021/01/16 11:37:02;;;;;;;19.20;12.90;;;4.60;76.20;;;;;;5075042;28;20524;-75
2021/01/16 11:39:45;;;;;;;23.50;14.53;;;4.70;76.50;;;;;;5074931;28;20448;-75
2021/01/16 11:42:12;;;;;;;21.40;14.67;;;4.70;76.20;;;;;;5074811;28;20479;-75
2021/01/16 11:45:02;;;;;;;21.50;14.07;;;4.80;76.40;;;;;;5074840;28;20451;-75
2021/01/16 11:47:29;;;;;;;20.93;12.63;;;4.90;76.30;;;;;;5054676;28;20483;-75
2021/01/16 11:49:57;;;;;;;24.67;12.90;;;4.90;76.20;;;;;;5074689;28;20464;-75
2021/01/16 11:52:26;;;;;;;26.80;13.70;;;4.90;75.90;;;;;;5074548;28;20468;-74
2021/01/16 11:54:52;;;;;;;18.63;11.00;;;5.00;76.00;;;;;;5074585;28;20486;-75
2021/01/16 11:57:22;;;;;;;19.83;12.03;;;5.00;75.70;;;;;;5074783;28;20451;-75
2021/01/16 11:59:49;;;;;;;17.67;11.03;;;5.00;75.50;;;;;;5074524;28;20444;-75
2021/01/16 12:02:15;;;;;;;17.50;11.30;;;5.10;74.40;;;;;;5074377;28;20464;-75
2021/01/16 12:04:43;;;;;;;14.93;10.00;;;5.10;74.10;;;;;;5074615;28;20447;-75
2021/01/16 12:07:12;;;;;;;15.73;9.83;;;5.10;73.40;;;;;;5074232;28;20480;-75
2021/01/16 12:09:42;;;;;;;13.60;9.97;;;5.10;72.90;;;;;;5074103;28;20967;-75
2021/01/16 12:12:10;;;;;;;13.33;9.00;;;5.10;72.30;;;;;;5073817;28;20488;-75
2021/01/16 12:14:38;;;;;;;12.43;8.20;;;5.20;72.50;;;;;;5074472;28;20452;-75
2021/01/16 12:17:09;;;;;;;13.93;7.47;;;5.30;72.20;;;;;;5074176;28;20441;-75
2021/01/16 12:19:36;;;;;;;11.50;7.90;;;5.30;71.00;;;;;;5074089;28;20441;-75
2021/01/16 12:22:05;;;;;;;10.97;7.20;;;5.30;69.10;;;;;;5074049;28;20514;-74
2021/01/16 12:24:32;;;;;;;10.07;7.40;;;5.30;67.10;;;;;;5074311;28;20433;-75
2021/01/16 12:27:01;;;;;;;10.30;6.90;;;5.30;67.20;;;;;;5073886;28;20480;-75
2021/01/16 12:29:37;;;;;;;12.50;7.20;;;5.30;67.10;;;;;;5073919;28;20448;-75
2021/01/16 12:32:05;;;;;;;17.17;6.57;;;5.40;66.90;;;;;;5073891;28;20503;-75
2021/01/16 12:34:31;;;;;;;7.40;6.50;;;5.30;65.80;;;;;;5073552;28;20452;-75
2021/01/16 12:36:57;;;;;;;11.07;5.93;;;5.20;64.90;;;;;;5073851;28;20445;-75
2021/01/16 12:39:24;;;;;;;8.83;6.33;;;5.10;64.30;;;;;;5073503;28;20869;-75
2021/01/16 12:41:56;;;;;;;7.40;6.00;;;5.10;64.70;;;;;;5073427;28;20460;-75
2021/01/16 12:44:24;;;;;;;10.23;6.23;;;5.10;64.50;;;;;;5073819;28;20477;-75
2021/01/16 12:46:51;;;;;;;7.03;6.30;;;5.00;63.80;;;;;;5073065;28;20480;-75
2021/01/16 12:49:18;;;;;;;7.13;5.53;;;5.00;63.20;;;;;;5073693;28;20527;-75
2021/01/16 12:51:46;;;;;;;8.70;5.27;;;4.90;62.50;;;;;;5073476;28;20499;-76